sensor_id;sensor_type;location;lat;lon;timestamp;P1;durP1;ratioP1;P2;durP2;ratioP2
6223;SDS011;3145;42.726;23.342;2023-04-25T00:01:15;4.57;;;4.17;;
6223;SDS011;3145;42.726;23.342;2023-04-25T00:03:41;5.03;;;4.70;;
6223;SDS011;3145;42.726;23.342;2023-04-25T00:06:08;5.90;;;5.50;;
6223;SDS011;3145;42.726;23.342;2023-04-25T00:08:36;6.53;;;4.97;;
6223;SDS011;3145;42.726;23.342;2023-04-25T00:11:03;5.43;;;4.93;;
6223;SDS011;3145;42.726;23.342;2023-04-25T00:13:30;6.40;;;5.60;;
6223;SDS011;3145;42.726;23.342;2023-04-25T00:15:57;5.80;;;5.40;;
6223;SDS011;3145;42.726;23.342;2023-04-25T00:18:25;6.20;;;5.80;;
6223;SDS011;3145;42.726;23.342;2023-04-25T00:20:53;5.73;;;5.10;;
6223;SDS011;3145;42.726;23.342;2023-04-25T00:23:20;5.07;;;4.67;;
6223;SDS011;3145;42.726;23.342;2023-04-25T00:25:49;5.47;;;5.07;;
6223;SDS011;3145;42.726;23.342;2023-04-25T00:28:16;5.83;;;5.33;;
6223;SDS011;3145;42.726;23.342;2023-04-25T00:30:43;7.13;;;5.63;;
6223;SDS011;3145;42.726;23.342;2023-04-25T00:33:10;6.60;;;6.00;;
6223;SDS011;3145;42.726;23.342;2023-04-25T00:35:36;6.43;;;5.93;;
6223;SDS011;3145;42.726;23.342;2023-04-25T00:38:04;7.07;;;5.80;;
6223;SDS011;3145;42.726;23.342;2023-04-25T00:40:31;6.30;;;5.73;;
6223;SDS011;3145;42.726;23.342;2023-04-25T00:42:59;6.30;;;5.80;;
6223;SDS011;3145;42.726;23.342;2023-04-25T00:45:27;5.73;;;5.30;;
6223;SDS011;3145;42.726;23.342;2023-04-25T00:47:55;10.33;;;8.00;;
6223;SDS011;3145;42.726;23.342;2023-04-25T00:50:22;15.93;;;12.10;;
6223;SDS011;3145;42.726;23.342;2023-04-25T00:52:48;10.83;;;9.73;;
6223;SDS011;3145;42.726;23.342;2023-04-25T00:55:15;9.07;;;8.23;;
6223;SDS011;3145;42.726;23.342;2023-04-25T00:57:42;7.43;;;6.63;;
6223;SDS011;3145;42.726;23.342;2023-04-25T01:00:11;7.83;;;6.63;;
6223;SDS011;3145;42.726;23.342;2023-04-25T01:02:38;7.90;;;7.20;;
6223;SDS011;3145;42.726;23.342;2023-04-25T01:05:06;7.57;;;6.97;;
6223;SDS011;3145;42.726;23.342;2023-04-25T01:07:34;8.37;;;7.57;;
6223;SDS011;3145;42.726;23.342;2023-04-25T01:10:01;11.03;;;8.00;;
6223;SDS011;3145;42.726;23.342;2023-04-25T01:12:29;8.77;;;7.97;;
6223;SDS011;3145;42.726;23.342;2023-04-25T01:14:56;7.43;;;6.83;;
6223;SDS011;3145;42.726;23.342;2023-04-25T01:17:24;8.17;;;7.07;;
6223;SDS011;3145;42.726;23.342;2023-04-25T01:19:50;6.63;;;6.03;;
6223;SDS011;3145;42.726;23.342;2023-04-25T01:22:19;7.63;;;6.10;;
6223;SDS011;3145;42.726;23.342;2023-04-25T01:24:45;7.00;;;6.40;;
6223;SDS011;3145;42.726;23.342;2023-04-25T01:27:12;6.97;;;6.27;;
6223;SDS011;3145;42.726;23.342;2023-04-25T01:29:40;7.50;;;6.80;;
6223;SDS011;3145;42.726;23.342;2023-04-25T01:32:07;7.37;;;6.77;;
6223;SDS011;3145;42.726;23.342;2023-04-25T01:34:35;8.27;;;7.57;;
6223;SDS011;3145;42.726;23.342;2023-04-25T01:37:02;7.80;;;7.03;;
6223;SDS011;3145;42.726;23.342;2023-04-25T01:39:30;7.37;;;6.77;;
6223;SDS011;3145;42.726;23.342;2023-04-25T01:41:58;6.63;;;6.13;;
6223;SDS011;3145;42.726;23.342;2023-04-25T01:44:25;7.67;;;6.90;;
6223;SDS011;3145;42.726;23.342;2023-04-25T01:46:52;8.43;;;6.33;;
6223;SDS011;3145;42.726;23.342;2023-04-25T01:49:19;6.37;;;5.87;;
6223;SDS011;3145;42.726;23.342;2023-04-25T01:51:46;7.27;;;6.67;;
6223;SDS011;3145;42.726;23.342;2023-04-25T01:54:13;7.27;;;6.33;;
6223;SDS011;3145;42.726;23.342;2023-04-25T01:56:41;8.23;;;7.50;;
6223;SDS011;3145;42.726;23.342;2023-04-25T01:59:08;8.20;;;7.27;;
6223;SDS011;3145;42.726;23.342;2023-04-25T02:01:34;8.10;;;7.20;;
6223;SDS011;3145;42.726;23.342;2023-04-25T02:04:01;8.50;;;7.70;;
6223;SDS011;3145;42.726;23.342;2023-04-25T02:06:28;8.67;;;7.07;;
6223;SDS011;3145;42.726;23.342;2023-04-25T02:08:55;8.60;;;7.70;;
6223;SDS011;3145;42.726;23.342;2023-04-25T02:11:22;8.03;;;7.33;;
6223;SDS011;3145;42.726;23.342;2023-04-25T02:13:50;8.13;;;7.47;;
6223;SDS011;3145;42.726;23.342;2023-04-25T02:16:18;8.73;;;7.93;;
6223;SDS011;3145;42.726;23.342;2023-04-25T02:18:45;9.17;;;8.37;;
6223;SDS011;3145;42.726;23.342;2023-04-25T02:21:12;8.13;;;7.43;;
6223;SDS011;3145;42.726;23.342;2023-04-25T02:23:38;8.37;;;7.60;;
6223;SDS011;3145;42.726;23.342;2023-04-25T02:26:05;9.40;;;6.57;;
6223;SDS011;3145;42.726;23.342;2023-04-25T02:28:32;6.93;;;6.43;;
6223;SDS011;3145;42.726;23.342;2023-04-25T02:31:00;6.53;;;5.93;;
6223;SDS011;3145;42.726;23.342;2023-04-25T02:33:27;7.07;;;6.47;;
6223;SDS011;3145;42.726;23.342;2023-04-25T02:35:54;7.00;;;6.40;;
6223;SDS011;3145;42.726;23.342;2023-04-25T02:38:20;7.33;;;6.63;;
6223;SDS011;3145;42.726;23.342;2023-04-25T02:40:47;6.43;;;5.93;;
6223;SDS011;3145;42.726;23.342;2023-04-25T02:43:14;6.77;;;6.17;;
6223;SDS011;3145;42.726;23.342;2023-04-25T02:45:41;11.60;;;10.50;;
6223;SDS011;3145;42.726;23.342;2023-04-25T02:48:09;7.30;;;6.80;;
6223;SDS011;3145;42.726;23.342;2023-04-25T02:50:35;8.07;;;7.27;;
6223;SDS011;3145;42.726;23.342;2023-04-25T02:53:02;9.07;;;8.27;;
6223;SDS011;3145;42.726;23.342;2023-04-25T02:55:29;10.37;;;8.83;;
6223;SDS011;3145;42.726;23.342;2023-04-25T02:57:56;10.63;;;8.53;;
6223;SDS011;3145;42.726;23.342;2023-04-25T03:00:22;9.07;;;8.17;;
6223;SDS011;3145;42.726;23.342;2023-04-25T03:02:50;10.20;;;8.20;;
6223;SDS011;3145;42.726;23.342;2023-04-25T03:05:18;8.47;;;7.77;;
6223;SDS011;3145;42.726;23.342;2023-04-25T03:07:44;8.57;;;7.77;;
6223;SDS011;3145;42.726;23.342;2023-04-25T03:10:11;9.70;;;7.83;;
6223;SDS011;3145;42.726;23.342;2023-04-25T03:12:38;10.33;;;9.33;;
6223;SDS011;3145;42.726;23.342;2023-04-25T03:15:05;11.70;;;10.47;;
6223;SDS011;3145;42.726;23.342;2023-04-25T03:17:33;13.97;;;12.47;;
6223;SDS011;3145;42.726;23.342;2023-04-25T03:19:59;12.57;;;11.27;;
6223;SDS011;3145;42.726;23.342;2023-04-25T03:22:28;13.70;;;12.23;;
6223;SDS011;3145;42.726;23.342;2023-04-25T03:24:54;12.13;;;10.93;;
6223;SDS011;3145;42.726;23.342;2023-04-25T03:27:21;11.37;;;10.20;;
6223;SDS011;3145;42.726;23.342;2023-04-25T03:29:48;10.57;;;9.67;;
6223;SDS011;3145;42.726;23.342;2023-04-25T03:32:15;11.77;;;10.57;;
6223;SDS011;3145;42.726;23.342;2023-04-25T03:34:41;11.50;;;10.30;;
6223;SDS011;3145;42.726;23.342;2023-04-25T03:37:08;13.27;;;10.47;;
6223;SDS011;3145;42.726;23.342;2023-04-25T03:39:36;14.60;;;9.83;;
6223;SDS011;3145;42.726;23.342;2023-04-25T03:42:03;12.43;;;11.33;;
6223;SDS011;3145;42.726;23.342;2023-04-25T03:44:30;17.17;;;12.87;;
6223;SDS011;3145;42.726;23.342;2023-04-25T03:46:57;14.63;;;12.13;;
6223;SDS011;3145;42.726;23.342;2023-04-25T03:49:24;28.30;;;19.50;;
6223;SDS011;3145;42.726;23.342;2023-04-25T03:51:50;35.70;;;20.27;;
6223;SDS011;3145;42.726;23.342;2023-04-25T03:54:17;28.77;;;20.50;;
6223;SDS011;3145;42.726;23.342;2023-04-25T03:56:45;32.67;;;22.83;;
6223;SDS011;3145;42.726;23.342;2023-04-25T03:59:13;20.80;;;17.10;;
6223;SDS011;3145;42.726;23.342;2023-04-25T04:01:40;18.93;;;15.40;;
6223;SDS011;3145;42.726;23.342;2023-04-25T04:04:07;21.13;;;16.80;;
6223;SDS011;3145;42.726;23.342;2023-04-25T04:06:33;33.27;;;16.17;;
6223;SDS011;3145;42.726;23.342;2023-04-25T04:09:01;19.30;;;15.90;;
6223;SDS011;3145;42.726;23.342;2023-04-25T04:11:28;17.27;;;12.50;;
6223;SDS011;3145;42.726;23.342;2023-04-25T04:13:56;14.50;;;11.13;;
6223;SDS011;3145;42.726;23.342;2023-04-25T04:16:23;12.37;;;11.10;;
6223;SDS011;3145;42.726;23.342;2023-04-25T04:18:49;10.50;;;9.40;;
6223;SDS011;3145;42.726;23.342;2023-04-25T04:21:16;10.33;;;9.20;;
6223;SDS011;3145;42.726;23.342;2023-04-25T04:23:43;11.13;;;10.03;;
6223;SDS011;3145;42.726;23.342;2023-04-25T04:26:09;15.80;;;12.00;;
6223;SDS011;3145;42.726;23.342;2023-04-25T04:28:38;26.87;;;22.00;;
6223;SDS011;3145;42.726;23.342;2023-04-25T04:31:06;28.10;;;23.47;;
6223;SDS011;3145;42.726;23.342;2023-04-25T04:33:32;24.27;;;19.83;;
6223;SDS011;3145;42.726;23.342;2023-04-25T04:36:00;12.80;;;11.50;;
6223;SDS011;3145;42.726;23.342;2023-04-25T04:38:27;19.03;;;13.73;;
6223;SDS011;3145;42.726;23.342;2023-04-25T04:40:55;16.23;;;12.80;;
6223;SDS011;3145;42.726;23.342;2023-04-25T04:43:22;18.43;;;12.73;;
6223;SDS011;3145;42.726;23.342;2023-04-25T04:45:49;14.73;;;12.70;;
6223;SDS011;3145;42.726;23.342;2023-04-25T04:48:17;16.10;;;10.93;;
6223;SDS011;3145;42.726;23.342;2023-04-25T04:50:44;19.37;;;14.17;;
6223;SDS011;3145;42.726;23.342;2023-04-25T04:53:11;17.93;;;10.97;;
6223;SDS011;3145;42.726;23.342;2023-04-25T04:55:38;10.53;;;9.27;;
6223;SDS011;3145;42.726;23.342;2023-04-25T04:58:06;15.87;;;10.40;;
6223;SDS011;3145;42.726;23.342;2023-04-25T05:00:32;11.87;;;8.77;;
6223;SDS011;3145;42.726;23.342;2023-04-25T05:02:59;10.83;;;9.73;;
6223;SDS011;3145;42.726;23.342;2023-04-25T05:05:28;10.93;;;9.07;;
6223;SDS011;3145;42.726;23.342;2023-04-25T05:07:55;12.47;;;11.27;;
6223;SDS011;3145;42.726;23.342;2023-04-25T05:10:21;12.20;;;10.30;;
6223;SDS011;3145;42.726;23.342;2023-04-25T05:12:48;14.10;;;12.20;;
6223;SDS011;3145;42.726;23.342;2023-04-25T05:15:15;14.83;;;12.33;;
6223;SDS011;3145;42.726;23.342;2023-04-25T05:17:42;16.60;;;12.80;;
6223;SDS011;3145;42.726;23.342;2023-04-25T05:20:09;16.00;;;11.80;;
6223;SDS011;3145;42.726;23.342;2023-04-25T05:22:38;12.17;;;10.87;;
6223;SDS011;3145;42.726;23.342;2023-04-25T05:25:06;16.27;;;11.57;;
6223;SDS011;3145;42.726;23.342;2023-04-25T05:27:34;16.23;;;14.20;;
6223;SDS011;3145;42.726;23.342;2023-04-25T05:30:01;17.57;;;14.23;;
6223;SDS011;3145;42.726;23.342;2023-04-25T05:32:28;16.27;;;14.20;;
6223;SDS011;3145;42.726;23.342;2023-04-25T05:34:54;14.87;;;13.23;;
6223;SDS011;3145;42.726;23.342;2023-04-25T05:37:21;15.90;;;14.20;;
6223;SDS011;3145;42.726;23.342;2023-04-25T05:39:49;14.27;;;12.77;;
6223;SDS011;3145;42.726;23.342;2023-04-25T05:42:16;13.20;;;11.83;;
6223;SDS011;3145;42.726;23.342;2023-04-25T05:44:43;38.90;;;33.73;;
6223;SDS011;3145;42.726;23.342;2023-04-25T05:47:10;47.00;;;35.90;;
6223;SDS011;3145;42.726;23.342;2023-04-25T05:49:37;44.13;;;37.40;;
6223;SDS011;3145;42.726;23.342;2023-04-25T05:52:04;19.33;;;17.23;;
6223;SDS011;3145;42.726;23.342;2023-04-25T05:54:30;19.87;;;17.70;;
6223;SDS011;3145;42.726;23.342;2023-04-25T05:56:58;13.07;;;11.33;;
6223;SDS011;3145;42.726;23.342;2023-04-25T05:59:25;14.40;;;12.97;;
6223;SDS011;3145;42.726;23.342;2023-04-25T06:01:52;10.20;;;9.30;;
6223;SDS011;3145;42.726;23.342;2023-04-25T06:04:19;9.17;;;8.27;;
6223;SDS011;3145;42.726;23.342;2023-04-25T06:06:46;8.60;;;7.80;;
6223;SDS011;3145;42.726;23.342;2023-04-25T06:09:13;9.13;;;8.13;;
6223;SDS011;3145;42.726;23.342;2023-04-25T06:11:40;9.67;;;8.67;;
6223;SDS011;3145;42.726;23.342;2023-04-25T06:14:08;10.17;;;8.83;;
6223;SDS011;3145;42.726;23.342;2023-04-25T06:16:35;11.37;;;9.07;;
6223;SDS011;3145;42.726;23.342;2023-04-25T06:19:01;10.10;;;9.07;;
6223;SDS011;3145;42.726;23.342;2023-04-25T06:21:28;9.13;;;8.33;;
6223;SDS011;3145;42.726;23.342;2023-04-25T06:23:55;9.87;;;8.87;;
6223;SDS011;3145;42.726;23.342;2023-04-25T06:26:21;11.00;;;10.00;;
6223;SDS011;3145;42.726;23.342;2023-04-25T06:28:48;15.57;;;9.17;;
6223;SDS011;3145;42.726;23.342;2023-04-25T06:31:16;14.03;;;9.20;;
6223;SDS011;3145;42.726;23.342;2023-04-25T06:33:43;11.90;;;9.07;;
6223;SDS011;3145;42.726;23.342;2023-04-25T06:36:10;9.77;;;8.77;;
6223;SDS011;3145;42.726;23.342;2023-04-25T06:38:36;11.67;;;10.50;;
6223;SDS011;3145;42.726;23.342;2023-04-25T06:41:03;13.07;;;9.53;;
6223;SDS011;3145;42.726;23.342;2023-04-25T06:43:30;14.43;;;11.10;;
6223;SDS011;3145;42.726;23.342;2023-04-25T06:45:58;29.53;;;17.17;;
6223;SDS011;3145;42.726;23.342;2023-04-25T06:48:27;18.27;;;12.73;;
6223;SDS011;3145;42.726;23.342;2023-04-25T06:50:54;8.97;;;8.10;;
6223;SDS011;3145;42.726;23.342;2023-04-25T06:53:21;10.00;;;8.90;;
6223;SDS011;3145;42.726;23.342;2023-04-25T06:55:48;10.60;;;9.63;;
6223;SDS011;3145;42.726;23.342;2023-04-25T06:58:15;7.80;;;7.20;;
6223;SDS011;3145;42.726;23.342;2023-04-25T07:00:41;12.50;;;8.80;;
6223;SDS011;3145;42.726;23.342;2023-04-25T07:03:08;9.30;;;8.40;;
6223;SDS011;3145;42.726;23.342;2023-04-25T07:05:36;8.63;;;7.83;;
6223;SDS011;3145;42.726;23.342;2023-04-25T07:08:03;10.00;;;7.57;;
6223;SDS011;3145;42.726;23.342;2023-04-25T07:10:30;8.27;;;7.53;;
6223;SDS011;3145;42.726;23.342;2023-04-25T07:12:57;10.40;;;8.30;;
6223;SDS011;3145;42.726;23.342;2023-04-25T07:15:23;7.70;;;6.67;;
6223;SDS011;3145;42.726;23.342;2023-04-25T07:17:50;9.27;;;7.70;;
6223;SDS011;3145;42.726;23.342;2023-04-25T07:20:17;8.50;;;7.60;;
6223;SDS011;3145;42.726;23.342;2023-04-25T07:22:45;9.73;;;8.30;;
6223;SDS011;3145;42.726;23.342;2023-04-25T07:25:11;11.00;;;8.60;;
6223;SDS011;3145;42.726;23.342;2023-04-25T07:27:38;8.63;;;7.83;;
6223;SDS011;3145;42.726;23.342;2023-04-25T07:30:06;8.97;;;8.07;;
6223;SDS011;3145;42.726;23.342;2023-04-25T07:32:34;13.83;;;10.70;;
6223;SDS011;3145;42.726;23.342;2023-04-25T07:35:01;10.87;;;9.33;;
6223;SDS011;3145;42.726;23.342;2023-04-25T07:37:28;10.40;;;9.40;;
6223;SDS011;3145;42.726;23.342;2023-04-25T07:39:56;10.53;;;9.53;;
6223;SDS011;3145;42.726;23.342;2023-04-25T07:42:23;10.10;;;9.20;;
6223;SDS011;3145;42.726;23.342;2023-04-25T07:44:50;12.50;;;9.20;;
6223;SDS011;3145;42.726;23.342;2023-04-25T07:47:16;10.67;;;8.60;;
6223;SDS011;3145;42.726;23.342;2023-04-25T07:49:44;9.73;;;8.27;;
6223;SDS011;3145;42.726;23.342;2023-04-25T07:52:12;10.87;;;8.80;;
6223;SDS011;3145;42.726;23.342;2023-04-25T07:54:39;13.57;;;10.30;;
6223;SDS011;3145;42.726;23.342;2023-04-25T07:57:07;14.93;;;11.20;;
6223;SDS011;3145;42.726;23.342;2023-04-25T07:59:34;12.03;;;9.53;;
6223;SDS011;3145;42.726;23.342;2023-04-25T08:02:00;12.43;;;9.60;;
6223;SDS011;3145;42.726;23.342;2023-04-25T08:04:28;10.70;;;8.97;;
6223;SDS011;3145;42.726;23.342;2023-04-25T08:06:54;13.00;;;9.33;;
6223;SDS011;3145;42.726;23.342;2023-04-25T08:09:21;10.40;;;9.30;;
6223;SDS011;3145;42.726;23.342;2023-04-25T08:11:48;11.43;;;9.67;;
6223;SDS011;3145;42.726;23.342;2023-04-25T08:14:16;11.27;;;9.40;;
6223;SDS011;3145;42.726;23.342;2023-04-25T08:16:43;10.60;;;9.57;;
6223;SDS011;3145;42.726;23.342;2023-04-25T08:19:10;12.93;;;9.43;;
6223;SDS011;3145;42.726;23.342;2023-04-25T08:21:37;9.47;;;8.43;;
6223;SDS011;3145;42.726;23.342;2023-04-25T08:24:04;12.10;;;9.00;;
6223;SDS011;3145;42.726;23.342;2023-04-25T08:26:31;10.57;;;8.83;;
6223;SDS011;3145;42.726;23.342;2023-04-25T08:28:58;9.47;;;8.57;;
6223;SDS011;3145;42.726;23.342;2023-04-25T08:31:26;9.53;;;8.47;;
6223;SDS011;3145;42.726;23.342;2023-04-25T08:33:52;9.17;;;8.37;;
6223;SDS011;3145;42.726;23.342;2023-04-25T08:36:19;21.93;;;11.23;;
6223;SDS011;3145;42.726;23.342;2023-04-25T08:38:46;10.97;;;9.93;;
6223;SDS011;3145;42.726;23.342;2023-04-25T08:41:12;13.30;;;11.07;;
6223;SDS011;3145;42.726;23.342;2023-04-25T08:43:42;16.00;;;10.87;;
6223;SDS011;3145;42.726;23.342;2023-04-25T08:46:10;12.67;;;10.73;;
6223;SDS011;3145;42.726;23.342;2023-04-25T08:48:40;12.67;;;10.37;;
6223;SDS011;3145;42.726;23.342;2023-04-25T08:51:10;11.60;;;10.43;;
6223;SDS011;3145;42.726;23.342;2023-04-25T08:53:45;11.97;;;10.73;;
6223;SDS011;3145;42.726;23.342;2023-04-25T08:56:16;11.67;;;9.43;;
6223;SDS011;3145;42.726;23.342;2023-04-25T08:58:47;10.20;;;9.20;;
6223;SDS011;3145;42.726;23.342;2023-04-25T09:01:15;16.23;;;11.13;;
6223;SDS011;3145;42.726;23.342;2023-04-25T09:03:43;15.43;;;12.87;;
6223;SDS011;3145;42.726;23.342;2023-04-25T09:06:12;12.37;;;11.10;;
6223;SDS011;3145;42.726;23.342;2023-04-25T09:08:39;10.27;;;9.23;;
6223;SDS011;3145;42.726;23.342;2023-04-25T09:11:06;12.73;;;10.40;;
6223;SDS011;3145;42.726;23.342;2023-04-25T09:13:33;10.70;;;9.60;;
6223;SDS011;3145;42.726;23.342;2023-04-25T09:15:59;13.00;;;10.17;;
6223;SDS011;3145;42.726;23.342;2023-04-25T09:18:27;13.00;;;8.90;;
6223;SDS011;3145;42.726;23.342;2023-04-25T09:20:56;9.33;;;8.00;;
6223;SDS011;3145;42.726;23.342;2023-04-25T09:23:31;9.23;;;6.43;;
6223;SDS011;3145;42.726;23.342;2023-04-25T09:26:06;7.83;;;5.83;;
6223;SDS011;3145;42.726;23.342;2023-04-25T09:28:33;7.13;;;6.63;;
6223;SDS011;3145;42.726;23.342;2023-04-25T09:31:00;8.13;;;7.23;;
6223;SDS011;3145;42.726;23.342;2023-04-25T09:33:27;6.83;;;6.23;;
6223;SDS011;3145;42.726;23.342;2023-04-25T09:36:02;5.77;;;5.27;;
6223;SDS011;3145;42.726;23.342;2023-04-25T09:38:30;4.97;;;4.50;;
6223;SDS011;3145;42.726;23.342;2023-04-25T09:40:58;6.27;;;5.73;;
6223;SDS011;3145;42.726;23.342;2023-04-25T09:43:25;7.13;;;5.40;;
6223;SDS011;3145;42.726;23.342;2023-04-25T09:45:53;5.57;;;5.17;;
6223;SDS011;3145;42.726;23.342;2023-04-25T09:48:22;5.40;;;4.90;;
6223;SDS011;3145;42.726;23.342;2023-04-25T09:51:04;4.73;;;4.37;;
6223;SDS011;3145;42.726;23.342;2023-04-25T09:53:32;4.50;;;4.20;;
6223;SDS011;3145;42.726;23.342;2023-04-25T09:55:59;4.30;;;3.90;;
6223;SDS011;3145;42.726;23.342;2023-04-25T09:58:26;4.20;;;3.73;;
6223;SDS011;3145;42.726;23.342;2023-04-25T10:00:56;4.40;;;4.07;;
6223;SDS011;3145;42.726;23.342;2023-04-25T10:03:26;5.60;;;3.23;;
6223;SDS011;3145;42.726;23.342;2023-04-25T10:05:56;25.23;;;14.07;;
6223;SDS011;3145;42.726;23.342;2023-04-25T10:08:26;28.33;;;16.17;;
6223;SDS011;3145;42.726;23.342;2023-04-25T10:10:58;3.03;;;2.80;;
6223;SDS011;3145;42.726;23.342;2023-04-25T10:13:27;2.40;;;2.20;;
6223;SDS011;3145;42.726;23.342;2023-04-25T10:15:55;3.27;;;3.00;;
6223;SDS011;3145;42.726;23.342;2023-04-25T10:18:24;2.33;;;2.20;;
6223;SDS011;3145;42.726;23.342;2023-04-25T10:20:52;3.00;;;2.80;;
6223;SDS011;3145;42.726;23.342;2023-04-25T10:23:20;2.43;;;2.10;;
6223;SDS011;3145;42.726;23.342;2023-04-25T10:25:49;2.03;;;1.93;;
6223;SDS011;3145;42.726;23.342;2023-04-25T10:28:17;2.07;;;1.97;;
6223;SDS011;3145;42.726;23.342;2023-04-25T10:33:32;4.20;;;1.60;;
6223;SDS011;3145;42.726;23.342;2023-04-25T10:36:08;5.10;;;1.10;;
6223;SDS011;3145;42.726;23.342;2023-04-25T10:38:35;2.73;;;1.10;;
6223;SDS011;3145;42.726;23.342;2023-04-25T10:41:04;4.90;;;1.43;;
6223;SDS011;3145;42.726;23.342;2023-04-25T10:43:34;1.27;;;1.10;;
6223;SDS011;3145;42.726;23.342;2023-04-25T10:46:02;5.27;;;3.10;;
6223;SDS011;3145;42.726;23.342;2023-04-25T10:48:38;2.87;;;1.60;;
6223;SDS011;3145;42.726;23.342;2023-04-25T10:51:12;1.77;;;1.60;;
6223;SDS011;3145;42.726;23.342;2023-04-25T10:53:43;2.10;;;1.90;;
6223;SDS011;3145;42.726;23.342;2023-04-25T10:56:12;9.13;;;8.43;;
6223;SDS011;3145;42.726;23.342;2023-04-25T10:58:44;6.30;;;4.90;;
6223;SDS011;3145;42.726;23.342;2023-04-25T11:01:11;1.60;;;1.50;;
6223;SDS011;3145;42.726;23.342;2023-04-25T11:03:40;2.70;;;1.90;;
6223;SDS011;3145;42.726;23.342;2023-04-25T11:06:12;2.03;;;1.20;;
6223;SDS011;3145;42.726;23.342;2023-04-25T11:08:47;1.20;;;1.00;;
6223;SDS011;3145;42.726;23.342;2023-04-25T11:11:16;1.40;;;0.90;;
6223;SDS011;3145;42.726;23.342;2023-04-25T11:13:43;1.73;;;1.10;;
6223;SDS011;3145;42.726;23.342;2023-04-25T11:16:11;2.73;;;1.10;;
6223;SDS011;3145;42.726;23.342;2023-04-25T11:18:37;3.40;;;1.07;;
6223;SDS011;3145;42.726;23.342;2023-04-25T11:21:06;0.80;;;0.80;;
6223;SDS011;3145;42.726;23.342;2023-04-25T11:23:33;1.30;;;1.20;;
6223;SDS011;3145;42.726;23.342;2023-04-25T11:26:00;3.67;;;0.60;;
6223;SDS011;3145;42.726;23.342;2023-04-25T11:28:28;1.63;;;1.07;;
6223;SDS011;3145;42.726;23.342;2023-04-25T11:30:55;1.30;;;0.90;;
6223;SDS011;3145;42.726;23.342;2023-04-25T11:33:23;1.83;;;0.70;;
6223;SDS011;3145;42.726;23.342;2023-04-25T11:35:51;2.17;;;0.90;;
6223;SDS011;3145;42.726;23.342;2023-04-25T11:38:20;1.10;;;1.00;;
6223;SDS011;3145;42.726;23.342;2023-04-25T11:40:49;2.20;;;0.90;;
6223;SDS011;3145;42.726;23.342;2023-04-25T11:43:17;0.90;;;0.90;;
6223;SDS011;3145;42.726;23.342;2023-04-25T11:45:47;1.30;;;1.10;;
6223;SDS011;3145;42.726;23.342;2023-04-25T11:48:15;1.10;;;1.00;;
6223;SDS011;3145;42.726;23.342;2023-04-25T11:50:42;1.17;;;0.80;;
6223;SDS011;3145;42.726;23.342;2023-04-25T11:53:09;1.23;;;0.80;;
6223;SDS011;3145;42.726;23.342;2023-04-25T11:55:36;3.07;;;0.97;;
6223;SDS011;3145;42.726;23.342;2023-04-25T11:58:03;0.70;;;0.70;;
6223;SDS011;3145;42.726;23.342;2023-04-25T12:00:30;1.27;;;0.90;;
6223;SDS011;3145;42.726;23.342;2023-04-25T12:02:58;2.27;;;0.90;;
6223;SDS011;3145;42.726;23.342;2023-04-25T12:05:26;0.73;;;0.70;;
6223;SDS011;3145;42.726;23.342;2023-04-25T12:07:53;1.03;;;0.87;;
6223;SDS011;3145;42.726;23.342;2023-04-25T12:10:20;2.50;;;1.07;;
6223;SDS011;3145;42.726;23.342;2023-04-25T12:12:47;0.87;;;0.87;;
6223;SDS011;3145;42.726;23.342;2023-04-25T12:15:15;1.13;;;1.00;;
6223;SDS011;3145;42.726;23.342;2023-04-25T12:17:44;2.77;;;1.17;;
6223;SDS011;3145;42.726;23.342;2023-04-25T12:20:14;1.10;;;1.00;;
6223;SDS011;3145;42.726;23.342;2023-04-25T12:22:42;0.93;;;0.80;;
6223;SDS011;3145;42.726;23.342;2023-04-25T12:25:11;4.03;;;1.10;;
6223;SDS011;3145;42.726;23.342;2023-04-25T12:27:38;1.13;;;0.90;;
6223;SDS011;3145;42.726;23.342;2023-04-25T12:30:07;1.40;;;1.00;;
6223;SDS011;3145;42.726;23.342;2023-04-25T12:32:35;10.57;;;2.47;;
6223;SDS011;3145;42.726;23.342;2023-04-25T12:35:02;10.53;;;4.00;;
6223;SDS011;3145;42.726;23.342;2023-04-25T12:37:31;15.47;;;3.03;;
6223;SDS011;3145;42.726;23.342;2023-04-25T12:39:57;4.80;;;3.70;;
6223;SDS011;3145;42.726;23.342;2023-04-25T12:42:24;9.87;;;6.63;;
6223;SDS011;3145;42.726;23.342;2023-04-25T12:44:51;12.37;;;6.50;;
6223;SDS011;3145;42.726;23.342;2023-04-25T12:47:18;8.07;;;4.90;;
6223;SDS011;3145;42.726;23.342;2023-04-25T12:49:44;9.40;;;5.83;;
6223;SDS011;3145;42.726;23.342;2023-04-25T12:52:11;4.30;;;3.53;;
6223;SDS011;3145;42.726;23.342;2023-04-25T12:54:39;3.90;;;3.60;;
6223;SDS011;3145;42.726;23.342;2023-04-25T12:57:06;5.37;;;2.83;;
6223;SDS011;3145;42.726;23.342;2023-04-25T12:59:33;5.93;;;3.20;;
6223;SDS011;3145;42.726;23.342;2023-04-25T13:01:59;4.23;;;3.80;;
6223;SDS011;3145;42.726;23.342;2023-04-25T13:04:26;4.70;;;4.30;;
6223;SDS011;3145;42.726;23.342;2023-04-25T13:06:53;4.20;;;3.90;;
6223;SDS011;3145;42.726;23.342;2023-04-25T13:09:20;5.00;;;4.60;;
6223;SDS011;3145;42.726;23.342;2023-04-25T13:11:48;5.77;;;5.27;;
6223;SDS011;3145;42.726;23.342;2023-04-25T13:14:15;3.97;;;3.60;;
6223;SDS011;3145;42.726;23.342;2023-04-25T13:16:41;4.63;;;3.63;;
6223;SDS011;3145;42.726;23.342;2023-04-25T13:19:08;4.40;;;4.00;;
6223;SDS011;3145;42.726;23.342;2023-04-25T13:21:36;8.10;;;4.50;;
6223;SDS011;3145;42.726;23.342;2023-04-25T13:24:03;4.77;;;4.30;;
6223;SDS011;3145;42.726;23.342;2023-04-25T13:26:30;4.27;;;3.87;;
6223;SDS011;3145;42.726;23.342;2023-04-25T13:28:59;3.70;;;3.40;;
6223;SDS011;3145;42.726;23.342;2023-04-25T13:31:28;4.57;;;4.10;;
6223;SDS011;3145;42.726;23.342;2023-04-25T13:33:55;8.27;;;4.50;;
6223;SDS011;3145;42.726;23.342;2023-04-25T13:36:21;5.63;;;4.30;;
6223;SDS011;3145;42.726;23.342;2023-04-25T13:38:48;5.83;;;5.03;;
6223;SDS011;3145;42.726;23.342;2023-04-25T13:41:15;7.73;;;4.97;;
6223;SDS011;3145;42.726;23.342;2023-04-25T13:43:44;7.60;;;4.90;;
6223;SDS011;3145;42.726;23.342;2023-04-25T13:46:13;5.90;;;4.33;;
6223;SDS011;3145;42.726;23.342;2023-04-25T13:48:41;8.20;;;5.13;;
6223;SDS011;3145;42.726;23.342;2023-04-25T13:51:12;11.47;;;6.77;;
6223;SDS011;3145;42.726;23.342;2023-04-25T13:53:40;9.23;;;7.63;;
6223;SDS011;3145;42.726;23.342;2023-04-25T13:56:07;10.97;;;6.80;;
6223;SDS011;3145;42.726;23.342;2023-04-25T13:58:34;6.43;;;5.83;;
6223;SDS011;3145;42.726;23.342;2023-04-25T14:01:01;8.60;;;7.30;;
6223;SDS011;3145;42.726;23.342;2023-04-25T14:03:29;11.17;;;7.70;;
6223;SDS011;3145;42.726;23.342;2023-04-25T14:05:56;10.43;;;7.97;;
6223;SDS011;3145;42.726;23.342;2023-04-25T14:08:23;7.77;;;7.07;;
6223;SDS011;3145;42.726;23.342;2023-04-25T14:10:50;5.30;;;4.80;;
6223;SDS011;3145;42.726;23.342;2023-04-25T14:13:16;6.67;;;4.93;;
6223;SDS011;3145;42.726;23.342;2023-04-25T14:15:43;4.63;;;3.47;;
6223;SDS011;3145;42.726;23.342;2023-04-25T14:18:10;4.00;;;3.70;;
6223;SDS011;3145;42.726;23.342;2023-04-25T14:20:38;4.00;;;3.63;;
6223;SDS011;3145;42.726;23.342;2023-04-25T14:23:05;4.73;;;3.17;;
6223;SDS011;3145;42.726;23.342;2023-04-25T14:25:31;2.37;;;2.27;;
6223;SDS011;3145;42.726;23.342;2023-04-25T14:27:58;4.13;;;2.47;;
6223;SDS011;3145;42.726;23.342;2023-04-25T14:30:25;2.93;;;2.73;;
6223;SDS011;3145;42.726;23.342;2023-04-25T14:32:52;4.73;;;2.97;;
6223;SDS011;3145;42.726;23.342;2023-04-25T14:35:18;2.73;;;2.53;;
6223;SDS011;3145;42.726;23.342;2023-04-25T14:37:47;2.40;;;2.20;;
6223;SDS011;3145;42.726;23.342;2023-04-25T14:40:13;4.43;;;2.93;;
6223;SDS011;3145;42.726;23.342;2023-04-25T14:42:42;2.50;;;2.30;;
6223;SDS011;3145;42.726;23.342;2023-04-25T14:45:09;4.90;;;4.53;;
6223;SDS011;3145;42.726;23.342;2023-04-25T14:47:36;3.27;;;3.07;;
6223;SDS011;3145;42.726;23.342;2023-04-25T14:50:03;3.37;;;3.07;;
6223;SDS011;3145;42.726;23.342;2023-04-25T14:52:30;2.57;;;2.37;;
6223;SDS011;3145;42.726;23.342;2023-04-25T14:54:59;2.90;;;2.70;;
6223;SDS011;3145;42.726;23.342;2023-04-25T14:57:29;2.40;;;2.23;;